sensor_id;sensor_type;location;lat;lon;timestamp;P1;durP1;ratioP1;P2;durP2;ratioP2
18286;SDS011;9269;50.838;12.094;2023-01-26T00:01:26;22.90;;;14.83;;
18286;SDS011;9269;50.838;12.094;2023-01-26T00:03:55;22.50;;;15.23;;
18286;SDS011;9269;50.838;12.094;2023-01-26T00:06:24;22.30;;;14.83;;
18286;SDS011;9269;50.838;12.094;2023-01-26T00:08:53;19.47;;;14.83;;
18286;SDS011;9269;50.838;12.094;2023-01-26T00:11:24;23.73;;;16.17;;
18286;SDS011;9269;50.838;12.094;2023-01-26T00:13:55;21.20;;;14.93;;
18286;SDS011;9269;50.838;12.094;2023-01-26T00:16:24;24.40;;;16.23;;
18286;SDS011;9269;50.838;12.094;2023-01-26T00:18:54;25.80;;;16.33;;
18286;SDS011;9269;50.838;12.094;2023-01-26T00:21:22;22.80;;;15.33;;
18286;SDS011;9269;50.838;12.094;2023-01-26T00:23:51;25.50;;;16.83;;
18286;SDS011;9269;50.838;12.094;2023-01-26T00:26:20;23.60;;;15.57;;
18286;SDS011;9269;50.838;12.094;2023-01-26T00:28:51;22.57;;;14.90;;
18286;SDS011;9269;50.838;12.094;2023-01-26T00:31:20;21.10;;;15.60;;
18286;SDS011;9269;50.838;12.094;2023-01-26T00:33:50;24.40;;;15.50;;
18286;SDS011;9269;50.838;12.094;2023-01-26T00:36:18;25.17;;;16.20;;
18286;SDS011;9269;50.838;12.094;2023-01-26T00:38:47;23.53;;;15.40;;
18286;SDS011;9269;50.838;12.094;2023-01-26T00:41:15;24.97;;;15.93;;
18286;SDS011;9269;50.838;12.094;2023-01-26T00:44:03;24.03;;;15.60;;
18286;SDS011;9269;50.838;12.094;2023-01-26T00:46:31;25.53;;;15.60;;
18286;SDS011;9269;50.838;12.094;2023-01-26T00:49:00;22.93;;;15.20;;
18286;SDS011;9269;50.838;12.094;2023-01-26T00:51:29;24.07;;;15.57;;
18286;SDS011;9269;50.838;12.094;2023-01-26T00:53:57;23.97;;;15.13;;
18286;SDS011;9269;50.838;12.094;2023-01-26T00:56:26;23.80;;;14.63;;
18286;SDS011;9269;50.838;12.094;2023-01-26T00:58:54;22.90;;;15.40;;
18286;SDS011;9269;50.838;12.094;2023-01-26T01:01:24;25.97;;;16.10;;
18286;SDS011;9269;50.838;12.094;2023-01-26T01:03:53;22.70;;;15.30;;
18286;SDS011;9269;50.838;12.094;2023-01-26T01:06:22;22.93;;;15.43;;
18286;SDS011;9269;50.838;12.094;2023-01-26T01:08:57;22.83;;;15.80;;
18286;SDS011;9269;50.838;12.094;2023-01-26T01:11:34;24.53;;;15.30;;
18286;SDS011;9269;50.838;12.094;2023-01-26T01:14:06;22.37;;;15.70;;
18286;SDS011;9269;50.838;12.094;2023-01-26T01:16:36;24.93;;;16.30;;
18286;SDS011;9269;50.838;12.094;2023-01-26T01:19:12;23.37;;;15.87;;
18286;SDS011;9269;50.838;12.094;2023-01-26T01:21:50;25.00;;;16.33;;
18286;SDS011;9269;50.838;12.094;2023-01-26T01:24:25;24.93;;;16.30;;
18286;SDS011;9269;50.838;12.094;2023-01-26T01:26:57;23.53;;;16.67;;
18286;SDS011;9269;50.838;12.094;2023-01-26T01:29:25;24.23;;;15.30;;
18286;SDS011;9269;50.838;12.094;2023-01-26T01:31:59;23.43;;;16.43;;
18286;SDS011;9269;50.838;12.094;2023-01-26T01:34:27;24.37;;;17.17;;
18286;SDS011;9269;50.838;12.094;2023-01-26T01:36:58;24.43;;;17.23;;
18286;SDS011;9269;50.838;12.094;2023-01-26T01:39:31;23.10;;;16.07;;
18286;SDS011;9269;50.838;12.094;2023-01-26T01:42:01;24.13;;;15.93;;
18286;SDS011;9269;50.838;12.094;2023-01-26T01:44:33;23.03;;;16.37;;
18286;SDS011;9269;50.838;12.094;2023-01-26T01:47:08;23.50;;;17.40;;
18286;SDS011;9269;50.838;12.094;2023-01-26T01:49:41;22.20;;;15.33;;
18286;SDS011;9269;50.838;12.094;2023-01-26T01:52:15;25.13;;;16.63;;
18286;SDS011;9269;50.838;12.094;2023-01-26T01:54:48;24.47;;;16.37;;
18286;SDS011;9269;50.838;12.094;2023-01-26T01:57:28;22.57;;;15.30;;
18286;SDS011;9269;50.838;12.094;2023-01-26T02:00:14;20.50;;;15.03;;
18286;SDS011;9269;50.838;12.094;2023-01-26T02:02:54;22.03;;;15.13;;
18286;SDS011;9269;50.838;12.094;2023-01-26T02:05:40;21.90;;;15.90;;
18286;SDS011;9269;50.838;12.094;2023-01-26T02:08:15;26.30;;;17.37;;
18286;SDS011;9269;50.838;12.094;2023-01-26T02:10:51;23.23;;;15.43;;
18286;SDS011;9269;50.838;12.094;2023-01-26T02:13:24;23.77;;;16.27;;
18286;SDS011;9269;50.838;12.094;2023-01-26T02:15:59;24.43;;;16.97;;
18286;SDS011;9269;50.838;12.094;2023-01-26T02:18:38;22.77;;;15.97;;
18286;SDS011;9269;50.838;12.094;2023-01-26T02:21:11;20.50;;;14.93;;
18286;SDS011;9269;50.838;12.094;2023-01-26T02:24:05;21.73;;;15.10;;
18286;SDS011;9269;50.838;12.094;2023-01-26T02:26:58;22.80;;;15.20;;
18286;SDS011;9269;50.838;12.094;2023-01-26T02:29:47;23.20;;;15.53;;
18286;SDS011;9269;50.838;12.094;2023-01-26T02:32:35;22.23;;;15.83;;
18286;SDS011;9269;50.838;12.094;2023-01-26T02:35:23;24.53;;;14.77;;
18286;SDS011;9269;50.838;12.094;2023-01-26T02:38:03;21.47;;;15.43;;
18286;SDS011;9269;50.838;12.094;2023-01-26T02:40:42;22.73;;;15.77;;
18286;SDS011;9269;50.838;12.094;2023-01-26T02:43:34;24.00;;;15.70;;
18286;SDS011;9269;50.838;12.094;2023-01-26T02:46:21;25.70;;;16.73;;
18286;SDS011;9269;50.838;12.094;2023-01-26T02:49:09;26.70;;;16.53;;
18286;SDS011;9269;50.838;12.094;2023-01-26T02:52:15;24.23;;;16.10;;
18286;SDS011;9269;50.838;12.094;2023-01-26T02:55:05;23.97;;;16.07;;
18286;SDS011;9269;50.838;12.094;2023-01-26T02:57:52;25.80;;;16.70;;
18286;SDS011;9269;50.838;12.094;2023-01-26T03:00:24;23.70;;;15.70;;
18286;SDS011;9269;50.838;12.094;2023-01-26T03:02:54;25.60;;;16.70;;
18286;SDS011;9269;50.838;12.094;2023-01-26T03:05:25;23.80;;;15.43;;
18286;SDS011;9269;50.838;12.094;2023-01-26T03:07:54;22.90;;;15.70;;
18286;SDS011;9269;50.838;12.094;2023-01-26T03:10:23;26.60;;;17.20;;
18286;SDS011;9269;50.838;12.094;2023-01-26T03:12:52;22.43;;;15.60;;
18286;SDS011;9269;50.838;12.094;2023-01-26T03:15:20;23.63;;;16.03;;
18286;SDS011;9269;50.838;12.094;2023-01-26T03:18:10;23.67;;;15.97;;
18286;SDS011;9269;50.838;12.094;2023-01-26T03:20:58;22.37;;;15.17;;
18286;SDS011;9269;50.838;12.094;2023-01-26T03:23:45;26.20;;;16.57;;
18286;SDS011;9269;50.838;12.094;2023-01-26T03:26:31;23.87;;;14.93;;
18286;SDS011;9269;50.838;12.094;2023-01-26T03:29:18;23.10;;;15.70;;
18286;SDS011;9269;50.838;12.094;2023-01-26T03:31:47;21.97;;;14.90;;
18286;SDS011;9269;50.838;12.094;2023-01-26T03:34:17;27.40;;;17.10;;
18286;SDS011;9269;50.838;12.094;2023-01-26T03:36:46;25.57;;;16.00;;
18286;SDS011;9269;50.838;12.094;2023-01-26T03:39:15;21.20;;;15.10;;
18286;SDS011;9269;50.838;12.094;2023-01-26T03:41:58;23.53;;;15.07;;
18286;SDS011;9269;50.838;12.094;2023-01-26T03:44:44;23.73;;;14.77;;
18286;SDS011;9269;50.838;12.094;2023-01-26T03:47:30;23.43;;;14.87;;
18286;SDS011;9269;50.838;12.094;2023-01-26T03:50:18;24.63;;;15.03;;
18286;SDS011;9269;50.838;12.094;2023-01-26T03:53:11;22.40;;;15.13;;
18286;SDS011;9269;50.838;12.094;2023-01-26T03:55:57;25.33;;;16.13;;
18286;SDS011;9269;50.838;12.094;2023-01-26T03:58:45;22.27;;;15.03;;
18286;SDS011;9269;50.838;12.094;2023-01-26T04:01:15;20.93;;;14.13;;
18286;SDS011;9269;50.838;12.094;2023-01-26T04:03:47;22.03;;;13.73;;
18286;SDS011;9269;50.838;12.094;2023-01-26T04:06:36;24.17;;;15.30;;
18286;SDS011;9269;50.838;12.094;2023-01-26T04:09:23;23.77;;;15.10;;
18286;SDS011;9269;50.838;12.094;2023-01-26T04:11:51;21.90;;;14.97;;
18286;SDS011;9269;50.838;12.094;2023-01-26T04:14:20;23.20;;;14.90;;
18286;SDS011;9269;50.838;12.094;2023-01-26T04:17:16;24.73;;;16.20;;
18286;SDS011;9269;50.838;12.094;2023-01-26T04:20:03;23.17;;;14.70;;
18286;SDS011;9269;50.838;12.094;2023-01-26T04:22:51;26.30;;;15.20;;
18286;SDS011;9269;50.838;12.094;2023-01-26T04:25:20;23.47;;;15.63;;
18286;SDS011;9269;50.838;12.094;2023-01-26T04:27:49;24.50;;;15.77;;
18286;SDS011;9269;50.838;12.094;2023-01-26T04:30:17;26.60;;;16.83;;
18286;SDS011;9269;50.838;12.094;2023-01-26T04:32:46;25.70;;;15.90;;
18286;SDS011;9269;50.838;12.094;2023-01-26T04:35:14;26.23;;;16.83;;
18286;SDS011;9269;50.838;12.094;2023-01-26T04:37:43;25.93;;;16.03;;
18286;SDS011;9269;50.838;12.094;2023-01-26T04:40:13;27.10;;;16.97;;
18286;SDS011;9269;50.838;12.094;2023-01-26T04:42:41;26.73;;;16.67;;
18286;SDS011;9269;50.838;12.094;2023-01-26T04:45:10;25.30;;;15.47;;
18286;SDS011;9269;50.838;12.094;2023-01-26T04:47:38;24.90;;;16.30;;
18286;SDS011;9269;50.838;12.094;2023-01-26T04:50:07;25.17;;;16.17;;
18286;SDS011;9269;50.838;12.094;2023-01-26T04:52:38;25.17;;;16.77;;
18286;SDS011;9269;50.838;12.094;2023-01-26T04:55:06;25.50;;;16.93;;
18286;SDS011;9269;50.838;12.094;2023-01-26T04:57:36;23.47;;;15.83;;
18286;SDS011;9269;50.838;12.094;2023-01-26T05:00:05;27.17;;;16.07;;
18286;SDS011;9269;50.838;12.094;2023-01-26T05:02:36;28.17;;;16.60;;
18286;SDS011;9269;50.838;12.094;2023-01-26T05:05:06;28.13;;;16.93;;
18286;SDS011;9269;50.838;12.094;2023-01-26T05:07:35;26.23;;;16.43;;
18286;SDS011;9269;50.838;12.094;2023-01-26T05:10:04;26.43;;;16.23;;
18286;SDS011;9269;50.838;12.094;2023-01-26T05:12:32;26.40;;;15.97;;
18286;SDS011;9269;50.838;12.094;2023-01-26T05:15:02;27.33;;;17.10;;
18286;SDS011;9269;50.838;12.094;2023-01-26T05:17:31;24.77;;;15.73;;
18286;SDS011;9269;50.838;12.094;2023-01-26T05:20:02;29.47;;;17.40;;
18286;SDS011;9269;50.838;12.094;2023-01-26T05:22:30;27.00;;;17.63;;
18286;SDS011;9269;50.838;12.094;2023-01-26T05:24:58;26.23;;;16.00;;
18286;SDS011;9269;50.838;12.094;2023-01-26T05:27:27;24.63;;;15.17;;
18286;SDS011;9269;50.838;12.094;2023-01-26T05:29:55;26.07;;;16.83;;
18286;SDS011;9269;50.838;12.094;2023-01-26T05:32:27;26.77;;;16.60;;
18286;SDS011;9269;50.838;12.094;2023-01-26T05:34:57;27.03;;;17.30;;
18286;SDS011;9269;50.838;12.094;2023-01-26T05:37:25;31.23;;;17.60;;
18286;SDS011;9269;50.838;12.094;2023-01-26T05:39:54;26.20;;;16.77;;
18286;SDS011;9269;50.838;12.094;2023-01-26T05:42:23;30.90;;;17.73;;
18286;SDS011;9269;50.838;12.094;2023-01-26T05:44:52;30.83;;;17.83;;
18286;SDS011;9269;50.838;12.094;2023-01-26T05:47:20;35.07;;;18.70;;
18286;SDS011;9269;50.838;12.094;2023-01-26T05:49:50;32.83;;;18.97;;
18286;SDS011;9269;50.838;12.094;2023-01-26T05:52:19;40.03;;;20.60;;
18286;SDS011;9269;50.838;12.094;2023-01-26T05:54:48;34.47;;;19.47;;
18286;SDS011;9269;50.838;12.094;2023-01-26T05:57:16;35.73;;;20.33;;
18286;SDS011;9269;50.838;12.094;2023-01-26T05:59:44;36.40;;;19.97;;
18286;SDS011;9269;50.838;12.094;2023-01-26T06:02:12;36.37;;;19.73;;
18286;SDS011;9269;50.838;12.094;2023-01-26T06:04:41;37.40;;;20.43;;
18286;SDS011;9269;50.838;12.094;2023-01-26T06:07:11;37.77;;;20.43;;
18286;SDS011;9269;50.838;12.094;2023-01-26T06:09:39;34.27;;;18.53;;
18286;SDS011;9269;50.838;12.094;2023-01-26T06:12:10;34.37;;;18.37;;
18286;SDS011;9269;50.838;12.094;2023-01-26T06:14:41;34.67;;;17.23;;
18286;SDS011;9269;50.838;12.094;2023-01-26T06:17:13;29.33;;;17.03;;
18286;SDS011;9269;50.838;12.094;2023-01-26T06:19:42;31.40;;;16.87;;
18286;SDS011;9269;50.838;12.094;2023-01-26T06:22:12;32.90;;;16.83;;
18286;SDS011;9269;50.838;12.094;2023-01-26T06:24:41;30.23;;;16.13;;
18286;SDS011;9269;50.838;12.094;2023-01-26T06:27:11;36.90;;;17.13;;
18286;SDS011;9269;50.838;12.094;2023-01-26T06:29:40;34.33;;;17.60;;
18286;SDS011;9269;50.838;12.094;2023-01-26T06:32:09;29.23;;;16.73;;
18286;SDS011;9269;50.838;12.094;2023-01-26T06:34:37;32.80;;;17.27;;
18286;SDS011;9269;50.838;12.094;2023-01-26T06:37:06;28.67;;;16.17;;
18286;SDS011;9269;50.838;12.094;2023-01-26T06:39:35;31.03;;;16.13;;
18286;SDS011;9269;50.838;12.094;2023-01-26T06:42:04;31.23;;;17.20;;
18286;SDS011;9269;50.838;12.094;2023-01-26T06:44:33;31.63;;;15.97;;
18286;SDS011;9269;50.838;12.094;2023-01-26T06:47:02;28.80;;;15.57;;
18286;SDS011;9269;50.838;12.094;2023-01-26T06:49:32;33.37;;;16.20;;
18286;SDS011;9269;50.838;12.094;2023-01-26T06:52:02;32.63;;;16.03;;
18286;SDS011;9269;50.838;12.094;2023-01-26T06:54:32;27.20;;;14.33;;
18286;SDS011;9269;50.838;12.094;2023-01-26T06:57:01;26.43;;;14.83;;
18286;SDS011;9269;50.838;12.094;2023-01-26T06:59:29;29.87;;;14.67;;
18286;SDS011;9269;50.838;12.094;2023-01-26T07:01:58;28.57;;;15.03;;
18286;SDS011;9269;50.838;12.094;2023-01-26T07:04:26;28.50;;;15.57;;
18286;SDS011;9269;50.838;12.094;2023-01-26T07:06:54;28.50;;;14.17;;
18286;SDS011;9269;50.838;12.094;2023-01-26T07:09:22;28.17;;;15.00;;
18286;SDS011;9269;50.838;12.094;2023-01-26T07:11:51;25.80;;;14.67;;
18286;SDS011;9269;50.838;12.094;2023-01-26T07:14:20;27.93;;;14.33;;
18286;SDS011;9269;50.838;12.094;2023-01-26T07:16:49;27.57;;;15.10;;
18286;SDS011;9269;50.838;12.094;2023-01-26T07:19:17;29.37;;;14.63;;
18286;SDS011;9269;50.838;12.094;2023-01-26T07:21:46;26.13;;;14.07;;
18286;SDS011;9269;50.838;12.094;2023-01-26T07:24:15;26.03;;;14.00;;
18286;SDS011;9269;50.838;12.094;2023-01-26T07:26:43;25.63;;;14.67;;
18286;SDS011;9269;50.838;12.094;2023-01-26T07:29:12;26.90;;;13.90;;
18286;SDS011;9269;50.838;12.094;2023-01-26T07:31:42;29.73;;;14.27;;
18286;SDS011;9269;50.838;12.094;2023-01-26T07:34:10;29.37;;;15.13;;
18286;SDS011;9269;50.838;12.094;2023-01-26T07:36:39;26.40;;;13.07;;
18286;SDS011;9269;50.838;12.094;2023-01-26T07:39:07;22.03;;;12.13;;
18286;SDS011;9269;50.838;12.094;2023-01-26T07:41:36;21.17;;;12.67;;
18286;SDS011;9269;50.838;12.094;2023-01-26T07:44:07;24.03;;;13.20;;
18286;SDS011;9269;50.838;12.094;2023-01-26T07:46:41;27.10;;;13.93;;
18286;SDS011;9269;50.838;12.094;2023-01-26T07:49:12;21.50;;;12.67;;
18286;SDS011;9269;50.838;12.094;2023-01-26T07:51:40;21.50;;;12.03;;
18286;SDS011;9269;50.838;12.094;2023-01-26T07:54:09;20.47;;;12.27;;
18286;SDS011;9269;50.838;12.094;2023-01-26T07:56:38;22.20;;;12.37;;
18286;SDS011;9269;50.838;12.094;2023-01-26T07:59:08;23.93;;;13.30;;
18286;SDS011;9269;50.838;12.094;2023-01-26T08:01:37;22.40;;;13.00;;
18286;SDS011;9269;50.838;12.094;2023-01-26T08:04:07;25.33;;;12.60;;
18286;SDS011;9269;50.838;12.094;2023-01-26T08:06:37;22.13;;;12.67;;
18286;SDS011;9269;50.838;12.094;2023-01-26T08:09:05;21.93;;;12.13;;
18286;SDS011;9269;50.838;12.094;2023-01-26T08:11:33;22.87;;;12.50;;
18286;SDS011;9269;50.838;12.094;2023-01-26T08:14:02;21.87;;;12.07;;
18286;SDS011;9269;50.838;12.094;2023-01-26T08:16:31;19.10;;;11.60;;
18286;SDS011;9269;50.838;12.094;2023-01-26T08:18:59;21.80;;;11.83;;
18286;SDS011;9269;50.838;12.094;2023-01-26T08:21:29;22.80;;;11.87;;
18286;SDS011;9269;50.838;12.094;2023-01-26T08:23:58;20.33;;;10.83;;
18286;SDS011;9269;50.838;12.094;2023-01-26T08:26:29;18.37;;;11.50;;
18286;SDS011;9269;50.838;12.094;2023-01-26T08:28:57;21.70;;;11.80;;
18286;SDS011;9269;50.838;12.094;2023-01-26T08:31:26;20.20;;;10.97;;
18286;SDS011;9269;50.838;12.094;2023-01-26T08:33:54;18.83;;;11.37;;
18286;SDS011;9269;50.838;12.094;2023-01-26T08:36:23;19.30;;;11.37;;
18286;SDS011;9269;50.838;12.094;2023-01-26T08:38:55;18.67;;;11.27;;
18286;SDS011;9269;50.838;12.094;2023-01-26T08:41:23;21.10;;;11.33;;
18286;SDS011;9269;50.838;12.094;2023-01-26T08:43:52;17.10;;;9.97;;
18286;SDS011;9269;50.838;12.094;2023-01-26T08:46:20;16.20;;;10.70;;
18286;SDS011;9269;50.838;12.094;2023-01-26T08:48:48;17.83;;;10.53;;
18286;SDS011;9269;50.838;12.094;2023-01-26T08:51:16;16.90;;;10.30;;
18286;SDS011;9269;50.838;12.094;2023-01-26T08:53:45;18.50;;;10.37;;
18286;SDS011;9269;50.838;12.094;2023-01-26T08:56:15;17.43;;;10.40;;
18286;SDS011;9269;50.838;12.094;2023-01-26T08:58:43;18.77;;;11.03;;
18286;SDS011;9269;50.838;12.094;2023-01-26T09:01:12;18.17;;;11.13;;
18286;SDS011;9269;50.838;12.094;2023-01-26T09:03:42;19.53;;;11.43;;
18286;SDS011;9269;50.838;12.094;2023-01-26T09:06:11;15.80;;;9.50;;
18286;SDS011;9269;50.838;12.094;2023-01-26T09:08:40;17.20;;;10.33;;
18286;SDS011;9269;50.838;12.094;2023-01-26T09:11:09;18.27;;;11.00;;
18286;SDS011;9269;50.838;12.094;2023-01-26T09:13:39;14.20;;;9.67;;
18286;SDS011;9269;50.838;12.094;2023-01-26T09:16:14;14.30;;;9.90;;
18286;SDS011;9269;50.838;12.094;2023-01-26T09:18:47;15.47;;;10.73;;
18286;SDS011;9269;50.838;12.094;2023-01-26T09:21:16;15.07;;;10.63;;
18286;SDS011;9269;50.838;12.094;2023-01-26T09:23:45;14.87;;;10.43;;
18286;SDS011;9269;50.838;12.094;2023-01-26T09:26:13;15.83;;;10.53;;
18286;SDS011;9269;50.838;12.094;2023-01-26T09:28:43;16.30;;;10.00;;
18286;SDS011;9269;50.838;12.094;2023-01-26T09:31:11;14.50;;;9.13;;
18286;SDS011;9269;50.838;12.094;2023-01-26T09:33:40;16.37;;;9.53;;
18286;SDS011;9269;50.838;12.094;2023-01-26T09:36:10;15.40;;;10.10;;
18286;SDS011;9269;50.838;12.094;2023-01-26T09:38:39;15.13;;;9.10;;
18286;SDS011;9269;50.838;12.094;2023-01-26T09:41:13;14.83;;;10.27;;
18286;SDS011;9269;50.838;12.094;2023-01-26T09:43:52;15.03;;;9.60;;
18286;SDS011;9269;50.838;12.094;2023-01-26T09:46:23;16.10;;;10.00;;
18286;SDS011;9269;50.838;12.094;2023-01-26T09:48:58;16.57;;;9.73;;
18286;SDS011;9269;50.838;12.094;2023-01-26T09:51:32;13.50;;;8.47;;
18286;SDS011;9269;50.838;12.094;2023-01-26T09:54:03;13.93;;;9.00;;
18286;SDS011;9269;50.838;12.094;2023-01-26T09:56:41;12.70;;;8.60;;
18286;SDS011;9269;50.838;12.094;2023-01-26T09:59:14;13.50;;;8.80;;
18286;SDS011;9269;50.838;12.094;2023-01-26T10:01:50;11.30;;;7.97;;
18286;SDS011;9269;50.838;12.094;2023-01-26T10:04:25;14.17;;;8.70;;
18286;SDS011;9269;50.838;12.094;2023-01-26T10:07:03;15.33;;;9.63;;
18286;SDS011;9269;50.838;12.094;2023-01-26T10:09:35;12.20;;;8.23;;
18286;SDS011;9269;50.838;12.094;2023-01-26T10:12:06;13.67;;;8.83;;
18286;SDS011;9269;50.838;12.094;2023-01-26T10:14:44;12.57;;;8.53;;
18286;SDS011;9269;50.838;12.094;2023-01-26T10:17:16;13.07;;;8.33;;
18286;SDS011;9269;50.838;12.094;2023-01-26T10:19:51;15.07;;;9.33;;
18286;SDS011;9269;50.838;12.094;2023-01-26T10:22:23;18.07;;;11.73;;
18286;SDS011;9269;50.838;12.094;2023-01-26T10:24:59;14.93;;;10.40;;
18286;SDS011;9269;50.838;12.094;2023-01-26T10:27:27;12.80;;;7.93;;
18286;SDS011;9269;50.838;12.094;2023-01-26T10:29:57;11.20;;;7.40;;
18286;SDS011;9269;50.838;12.094;2023-01-26T10:32:27;9.80;;;7.20;;
18286;SDS011;9269;50.838;12.094;2023-01-26T10:34:56;12.40;;;7.90;;
18286;SDS011;9269;50.838;12.094;2023-01-26T10:37:25;11.87;;;7.40;;
18286;SDS011;9269;50.838;12.094;2023-01-26T10:39:57;11.60;;;7.27;;
18286;SDS011;9269;50.838;12.094;2023-01-26T10:42:27;9.60;;;6.67;;
18286;SDS011;9269;50.838;12.094;2023-01-26T10:44:59;12.13;;;7.40;;
18286;SDS011;9269;50.838;12.094;2023-01-26T10:47:29;14.60;;;8.47;;
18286;SDS011;9269;50.838;12.094;2023-01-26T10:50:12;11.60;;;7.90;;
18286;SDS011;9269;50.838;12.094;2023-01-26T10:52:56;11.20;;;7.60;;
18286;SDS011;9269;50.838;12.094;2023-01-26T10:55:26;13.33;;;8.17;;
18286;SDS011;9269;50.838;12.094;2023-01-26T10:57:55;10.93;;;7.37;;
18286;SDS011;9269;50.838;12.094;2023-01-26T11:00:27;12.97;;;8.47;;
18286;SDS011;9269;50.838;12.094;2023-01-26T11:02:58;13.30;;;8.40;;
18286;SDS011;9269;50.838;12.094;2023-01-26T11:05:33;12.73;;;8.70;;
18286;SDS011;9269;50.838;12.094;2023-01-26T11:08:03;12.37;;;7.80;;
18286;SDS011;9269;50.838;12.094;2023-01-26T11:10:53;11.70;;;7.43;;
18286;SDS011;9269;50.838;12.094;2023-01-26T11:13:22;10.27;;;6.60;;
18286;SDS011;9269;50.838;12.094;2023-01-26T11:15:59;10.70;;;6.53;;
18286;SDS011;9269;50.838;12.094;2023-01-26T11:18:36;10.47;;;6.87;;
18286;SDS011;9269;50.838;12.094;2023-01-26T11:21:10;9.70;;;6.17;;
18286;SDS011;9269;50.838;12.094;2023-01-26T11:23:48;10.43;;;6.37;;
18286;SDS011;9269;50.838;12.094;2023-01-26T11:26:35;12.23;;;8.10;;
18286;SDS011;9269;50.838;12.094;2023-01-26T11:29:45;11.20;;;7.00;;
18286;SDS011;9269;50.838;12.094;2023-01-26T11:32:35;10.27;;;6.53;;
18286;SDS011;9269;50.838;12.094;2023-01-26T11:35:14;10.60;;;7.50;;
18286;SDS011;9269;50.838;12.094;2023-01-26T11:37:51;10.63;;;7.77;;
18286;SDS011;9269;50.838;12.094;2023-01-26T11:40:29;11.20;;;7.67;;
18286;SDS011;9269;50.838;12.094;2023-01-26T11:43:09;11.93;;;7.40;;
18286;SDS011;9269;50.838;12.094;2023-01-26T11:45:59;10.90;;;7.50;;
18286;SDS011;9269;50.838;12.094;2023-01-26T11:48:38;13.53;;;7.90;;
18286;SDS011;9269;50.838;12.094;2023-01-26T11:51:17;10.77;;;7.10;;
18286;SDS011;9269;50.838;12.094;2023-01-26T11:53:55;11.20;;;7.63;;
18286;SDS011;9269;50.838;12.094;2023-01-26T11:56:37;11.97;;;8.53;;
18286;SDS011;9269;50.838;12.094;2023-01-26T11:59:15;13.40;;;8.00;;
18286;SDS011;9269;50.838;12.094;2023-01-26T12:01:47;11.10;;;8.40;;
18286;SDS011;9269;50.838;12.094;2023-01-26T12:04:19;11.77;;;7.90;;
18286;SDS011;9269;50.838;12.094;2023-01-26T12:06:49;11.57;;;7.40;;
18286;SDS011;9269;50.838;12.094;2023-01-26T12:09:22;12.07;;;8.43;;
18286;SDS011;9269;50.838;12.094;2023-01-26T12:11:59;12.50;;;8.40;;
18286;SDS011;9269;50.838;12.094;2023-01-26T12:14:35;12.87;;;8.63;;
18286;SDS011;9269;50.838;12.094;2023-01-26T12:17:17;13.77;;;8.57;;
18286;SDS011;9269;50.838;12.094;2023-01-26T12:19:59;13.67;;;8.60;;
18286;SDS011;9269;50.838;12.094;2023-01-26T12:22:32;11.63;;;8.37;;
18286;SDS011;9269;50.838;12.094;2023-01-26T12:25:07;12.70;;;8.27;;
18286;SDS011;9269;50.838;12.094;2023-01-26T12:27:52;12.07;;;8.50;;
18286;SDS011;9269;50.838;12.094;2023-01-26T12:30:29;12.87;;;8.10;;
18286;SDS011;9269;50.838;12.094;2023-01-26T12:33:02;11.70;;;8.07;;
18286;SDS011;9269;50.838;12.094;2023-01-26T12:35:35;12.97;;;8.70;;
18286;SDS011;9269;50.838;12.094;2023-01-26T12:38:17;12.50;;;8.97;;
18286;SDS011;9269;50.838;12.094;2023-01-26T12:40:53;10.80;;;7.97;;
18286;SDS011;9269;50.838;12.094;2023-01-26T12:43:35;11.47;;;8.10;;
18286;SDS011;9269;50.838;12.094;2023-01-26T12:46:13;13.90;;;8.57;;
18286;SDS011;9269;50.838;12.094;2023-01-26T12:48:45;14.40;;;8.50;;
18286;SDS011;9269;50.838;12.094;2023-01-26T12:51:18;14.80;;;9.60;;
18286;SDS011;9269;50.838;12.094;2023-01-26T12:53:51;13.23;;;8.90;;
18286;SDS011;9269;50.838;12.094;2023-01-26T12:56:26;14.00;;;9.00;;
18286;SDS011;9269;50.838;12.094;2023-01-26T12:58:58;13.10;;;8.53;;
18286;SDS011;9269;50.838;12.094;2023-01-26T13:01:38;13.87;;;9.40;;
18286;SDS011;9269;50.838;12.094;2023-01-26T13:04:09;12.53;;;8.80;;
18286;SDS011;9269;50.838;12.094;2023-01-26T13:06:41;11.67;;;8.27;;
18286;SDS011;9269;50.838;12.094;2023-01-26T13:09:20;14.17;;;9.20;;
18286;SDS011;9269;50.838;12.094;2023-01-26T13:11:51;15.30;;;8.90;;
18286;SDS011;9269;50.838;12.094;2023-01-26T13:14:24;12.50;;;9.13;;
18286;SDS011;9269;50.838;12.094;2023-01-26T13:20:01;11.87;;;8.10;;
18286;SDS011;9269;50.838;12.094;2023-01-26T13:22:48;13.00;;;9.50;;
18286;SDS011;9269;50.838;12.094;2023-01-26T13:25:18;14.00;;;10.07;;
18286;SDS011;9269;50.838;12.094;2023-01-26T13:27:54;13.53;;;9.57;;
18286;SDS011;9269;50.838;12.094;2023-01-26T13:30:33;14.93;;;9.77;;
18286;SDS011;9269;50.838;12.094;2023-01-26T13:33:13;13.27;;;9.40;;
18286;SDS011;9269;50.838;12.094;2023-01-26T13:35:44;13.57;;;9.00;;
18286;SDS011;9269;50.838;12.094;2023-01-26T13:38:16;13.13;;;8.73;;
18286;SDS011;9269;50.838;12.094;2023-01-26T13:40:48;13.37;;;9.03;;
18286;SDS011;9269;50.838;12.094;2023-01-26T13:43:22;13.43;;;8.60;;
18286;SDS011;9269;50.838;12.094;2023-01-26T13:46:02;12.83;;;8.77;;
18286;SDS011;9269;50.838;12.094;2023-01-26T13:48:42;12.63;;;8.57;;
18286;SDS011;9269;50.838;12.094;2023-01-26T13:51:15;12.63;;;9.30;;
18286;SDS011;9269;50.838;12.094;2023-01-26T13:53:52;13.93;;;9.03;;
18286;SDS011;9269;50.838;12.094;2023-01-26T13:56:27;13.77;;;9.30;;
18286;SDS011;9269;50.838;12.094;2023-01-26T13:59:08;12.80;;;8.70;;
18286;SDS011;9269;50.838;12.094;2023-01-26T14:01:42;12.87;;;8.83;;
18286;SDS011;9269;50.838;12.094;2023-01-26T14:04:12;14.03;;;9.47;;
18286;SDS011;9269;50.838;12.094;2023-01-26T14:06:46;14.53;;;10.23;;
18286;SDS011;9269;50.838;12.094;2023-01-26T14:09:18;14.07;;;9.60;;
18286;SDS011;9269;50.838;12.094;2023-01-26T14:11:54;14.30;;;9.43;;
18286;SDS011;9269;50.838;12.094;2023-01-26T14:14:26;14.17;;;9.27;;
18286;SDS011;9269;50.838;12.094;2023-01-26T14:16:56;14.63;;;9.33;;
18286;SDS011;9269;50.838;12.094;2023-01-26T14:19:26;14.67;;;10.40;;
18286;SDS011;9269;50.838;12.094;2023-01-26T14:21:57;14.40;;;9.33;;
18286;SDS011;9269;50.838;12.094;2023-01-26T14:24:30;14.43;;;9.87;;
18286;SDS011;9269;50.838;12.094;2023-01-26T14:27:00;12.37;;;9.00;;
18286;SDS011;9269;50.838;12.094;2023-01-26T14:29:29;13.87;;;9.83;;
18286;SDS011;9269;50.838;12.094;2023-01-26T14:32:03;13.97;;;9.87;;
18286;SDS011;9269;50.838;12.094;2023-01-26T14:34:49;15.03;;;10.37;;
18286;SDS011;9269;50.838;12.094;2023-01-26T14:37:20;15.23;;;11.50;;
18286;SDS011;9269;50.838;12.094;2023-01-26T14:42:47;13.53;;;10.20;;
18286;SDS011;9269;50.838;12.094;2023-01-26T14:45:22;14.30;;;10.47;;
18286;SDS011;9269;50.838;12.094;2023-01-26T14:47:56;15.77;;;10.60;;
18286;SDS011;9269;50.838;12.094;2023-01-26T14:50:27;14.47;;;10.17;;
18286;SDS011;9269;50.838;12.094;2023-01-26T14:52:59;16.03;;;10.60;;
18286;SDS011;9269;50.838;12.094;2023-01-26T14:55:30;15.53;;;11.70;;
18286;SDS011;9269;50.838;12.094;2023-01-26T14:58:02;14.63;;;10.50;;
18286;SDS011;9269;50.838;12.094;2023-01-26T15:00:39;16.87;;;10.77;;
18286;SDS011;9269;50.838;12.094;2023-01-26T15:03:11;17.80;;;11.37;;
18286;SDS011;9269;50.838;12.094;2023-01-26T15:06:02;15.33;;;10.73;;
18286;SDS011;9269;50.838;12.094;2023-01-26T15:08:34;14.20;;;9.60;;